Time;durP1;ratioP1;P1;durP2;ratioP2;P2;SDS_P1;SDS_P2;PMS_P1;PMS_P2;Temp;Humidity;BMP_temperature;BMP_pressure;BME280_temperature;BME280_humidity;BME280_pressure;Samples;Min_cycle;Max_cycle;Signal;HPM_P1;HPM_P2
2022/02/17 00:00:21;;;;;;;14.48;2.30;;;8.70;71.10;;;;;;4996294;28;20042;-75
2022/02/17 00:02:50;;;;;;;19.25;3.28;;;8.70;71.50;;;;;;5000308;28;20046;-75
2022/02/17 00:05:38;;;;;;;22.75;3.67;;;8.60;72.00;;;;;;5001121;28;20068;-74
2022/02/17 00:08:25;;;;;;;12.18;1.92;;;8.50;72.60;;;;;;5008100;28;20044;-75
2022/02/17 00:11:13;;;;;;;15.20;2.42;;;8.40;73.30;;;;;;5009940;28;20513;-75
2022/02/17 00:13:41;;;;;;;23.48;2.92;;;8.30;73.80;;;;;;4993054;28;20046;-76
2022/02/17 00:16:09;;;;;;;9.38;2.10;;;8.30;73.80;;;;;;5000799;28;20057;-75
2022/02/17 00:18:37;;;;;;;20.10;2.42;;;8.30;74.20;;;;;;5009717;28;20057;-75
2022/02/17 00:21:04;;;;;;;16.35;2.78;;;8.30;74.40;;;;;;5000964;28;20594;-75
2022/02/17 00:23:32;;;;;;;7.25;1.42;;;8.30;74.50;;;;;;4990285;28;20054;-75
2022/02/17 00:26:18;;;;;;;23.67;3.13;;;8.30;74.80;;;;;;4989824;28;20054;-74
2022/02/17 00:28:46;;;;;;;16.83;2.50;;;8.30;74.90;;;;;;4991761;28;20050;-75
2022/02/17 00:31:32;;;;;;;12.10;2.65;;;8.20;74.90;;;;;;4992077;28;20065;-75
2022/02/17 00:34:03;;;;;;;9.80;1.85;;;8.20;75.20;;;;;;4992259;28;20045;-75
2022/02/17 00:36:31;;;;;;;11.63;1.92;;;8.20;75.00;;;;;;4993417;28;20403;-75
2022/02/17 00:38:59;;;;;;;10.20;2.00;;;8.20;75.40;;;;;;4999498;28;20543;-75
2022/02/17 00:41:46;;;;;;;10.82;2.03;;;8.10;75.30;;;;;;4997876;28;20259;-75
2022/02/17 00:44:14;;;;;;;12.50;1.67;;;8.20;75.20;;;;;;4991689;28;20062;-75
2022/02/17 00:46:42;;;;;;;14.93;1.70;;;8.20;75.20;;;;;;4991153;28;20047;-75
2022/02/17 00:49:09;;;;;;;19.08;2.38;;;8.20;74.90;;;;;;5001317;28;20049;-74
2022/02/17 00:51:37;;;;;;;19.58;2.88;;;8.30;74.70;;;;;;4984621;28;20054;-75
2022/02/17 00:54:05;;;;;;;14.93;2.13;;;8.20;74.50;;;;;;4991000;28;20061;-75
2022/02/17 00:56:35;;;;;;;11.30;2.40;;;8.30;74.30;;;;;;4990342;28;20051;-74
2022/02/17 00:59:03;;;;;;;11.32;1.77;;;8.30;73.80;;;;;;4991086;28;20558;-75
2022/02/17 01:01:31;;;;;;;11.93;2.05;;;8.30;73.80;;;;;;4990774;28;20054;-74
2022/02/17 01:03:59;;;;;;;8.70;1.52;;;8.30;73.40;;;;;;4991671;28;20046;-75
2022/02/17 01:06:27;;;;;;;10.85;1.42;;;8.30;73.70;;;;;;4991156;28;20046;-75
2022/02/17 01:08:54;;;;;;;14.05;1.73;;;8.30;73.50;;;;;;4990534;28;20046;-74
2022/02/17 01:11:25;;;;;;;11.13;1.80;;;8.30;73.10;;;;;;4991343;28;20436;-74
2022/02/17 01:13:53;;;;;;;15.68;1.60;;;8.20;73.40;;;;;;4989803;28;20055;-74
2022/02/17 01:16:20;;;;;;;11.15;1.48;;;8.20;72.90;;;;;;4990351;28;20046;-75
2022/02/17 01:18:48;;;;;;;6.72;1.50;;;8.00;73.10;;;;;;4996775;28;20053;-76
2022/02/17 01:21:19;;;;;;;15.10;2.03;;;8.00;73.40;;;;;;4996633;28;20038;-75
2022/02/17 01:23:47;;;;;;;12.90;1.63;;;7.90;73.30;;;;;;4997599;28;20042;-75
2022/02/17 01:26:15;;;;;;;11.20;1.60;;;7.80;73.60;;;;;;4993964;28;20053;-75
2022/02/17 01:29:15;;;;;;;12.07;1.27;;;7.80;73.40;;;;;;4995481;28;20073;-73
2022/02/17 01:31:44;;;;;;;6.55;0.88;;;7.90;71.30;;;;;;5012073;28;20069;-75
2022/02/17 01:34:17;;;;;;;10.93;1.80;;;7.90;68.10;;;;;;4993330;28;20428;-75
2022/02/17 01:37:10;;;;;;;6.10;1.02;;;8.00;67.20;;;;;;4995285;28;20078;-74
2022/02/17 01:39:39;;;;;;;7.88;1.48;;;8.00;66.50;;;;;;4980001;28;20062;-73
2022/02/17 01:42:09;;;;;;;8.93;1.52;;;8.00;66.60;;;;;;4980330;28;20058;-74
2022/02/17 01:44:45;;;;;;;11.10;1.48;;;8.00;66.90;;;;;;5010258;28;20384;-74
2022/02/17 01:47:14;;;;;;;5.75;0.90;;;8.00;67.20;;;;;;4994966;28;20050;-75
2022/02/17 01:49:43;;;;;;;11.15;1.40;;;8.00;67.40;;;;;;4995865;28;20039;-74
2022/02/17 01:52:12;;;;;;;8.73;1.45;;;7.90;67.60;;;;;;4995429;28;20050;-74
2022/02/17 01:54:47;;;;;;;5.72;0.90;;;8.00;68.00;;;;;;4996230;28;20225;-75
2022/02/17 01:57:16;;;;;;;8.80;1.60;;;7.90;68.10;;;;;;4997173;28;20076;-74
2022/02/17 02:00:12;;;;;;;12.05;0.93;;;7.90;68.20;;;;;;4993683;28;20050;-74
2022/02/17 02:02:46;;;;;;;9.67;1.30;;;7.90;68.50;;;;;;4996115;28;20037;-74
2022/02/17 02:05:21;;;;;;;7.75;1.10;;;7.80;68.90;;;;;;5010667;28;20042;-74
2022/02/17 02:07:49;;;;;;;6.70;1.25;;;7.80;69.20;;;;;;4994372;28;20037;-74
2022/02/17 02:10:26;;;;;;;7.65;1.40;;;7.70;69.10;;;;;;4994407;28;20050;-75
2022/02/17 02:12:54;;;;;;;6.97;1.05;;;7.60;69.70;;;;;;4994604;28;20407;-74
2022/02/17 02:15:47;;;;;;;8.23;1.08;;;7.50;70.10;;;;;;4994967;28;20043;-74
2022/02/17 02:18:16;;;;;;;;;;;7.40;69.70;;;;;;4993666;28;20471;-77
2022/02/17 02:20:55;;;;;;;6.25;0.90;;;7.30;69.70;;;;;;4996081;28;20287;-75
2022/02/17 02:23:37;;;;;;;11.32;1.25;;;7.30;68.60;;;;;;4979711;28;20427;-74
2022/02/17 02:26:07;;;;;;;4.78;0.65;;;7.30;68.30;;;;;;4996283;28;20049;-74
2022/02/17 02:28:35;;;;;;;6.78;0.85;;;7.20;68.10;;;;;;4993446;28;20053;-74
2022/02/17 02:31:05;;;;;;;14.90;1.30;;;7.20;67.80;;;;;;4976655;28;20066;-74
2022/02/17 02:33:33;;;;;;;6.25;1.25;;;7.20;67.80;;;;;;4976523;28;20408;-75
2022/02/17 02:36:19;;;;;;;5.57;0.90;;;7.10;68.00;;;;;;4998780;28;20043;-74
2022/02/17 02:39:21;;;;;;;8.32;1.15;;;7.10;67.90;;;;;;4993498;28;20047;-74
2022/02/17 02:42:12;;;;;;;4.55;0.90;;;7.00;68.00;;;;;;4980718;28;20518;-74
2022/02/17 02:44:40;;;;;;;3.72;0.80;;;6.90;67.60;;;;;;4993419;28;20043;-75
2022/02/17 02:47:08;;;;;;;3.40;0.63;;;6.90;66.70;;;;;;4975831;28;20504;-74
2022/02/17 02:49:40;;;;;;;6.70;1.10;;;7.00;66.50;;;;;;4993641;28;20049;-74
2022/02/17 02:52:08;;;;;;;6.05;0.73;;;6.90;66.40;;;;;;4993906;28;20050;-74
2022/02/17 02:54:38;;;;;;;8.52;0.90;;;6.90;66.40;;;;;;4992313;28;20051;-74
2022/02/17 02:57:08;;;;;;;9.07;0.90;;;6.90;66.10;;;;;;4993960;28;20072;-74
2022/02/17 02:59:36;;;;;;;10.77;1.10;;;6.90;66.00;;;;;;4976212;28;20404;-74
2022/02/17 03:02:10;;;;;;;10.23;1.55;;;6.80;66.20;;;;;;4975193;28;20042;-74
2022/02/17 03:04:56;;;;;;;7.03;1.00;;;6.80;66.30;;;;;;4991961;28;20061;-73
2022/02/17 03:07:25;;;;;;;10.27;1.33;;;6.80;66.40;;;;;;4992248;28;20050;-74
2022/02/17 03:09:52;;;;;;;6.00;0.85;;;6.80;66.40;;;;;;4992570;28;20066;-74
2022/02/17 03:12:20;;;;;;;6.28;0.93;;;6.80;66.50;;;;;;4993689;28;20057;-74
2022/02/17 03:14:49;;;;;;;10.77;1.25;;;6.70;66.60;;;;;;4991950;28;20069;-75
2022/02/17 03:17:28;;;;;;;13.48;1.30;;;6.80;67.00;;;;;;4977661;28;20057;-74
2022/02/17 03:19:56;;;;;;;9.65;1.00;;;6.70;67.10;;;;;;4993208;28;20050;-74
2022/02/17 03:22:25;;;;;;;6.47;0.95;;;6.70;67.60;;;;;;4991918;28;20042;-74
2022/02/17 03:24:57;;;;;;;10.63;1.02;;;6.60;68.10;;;;;;4992032;28;20066;-74
2022/02/17 03:27:24;;;;;;;6.82;1.00;;;6.60;68.60;;;;;;4991616;28;20441;-74
2022/02/17 03:30:09;;;;;;;7.50;1.17;;;6.50;69.00;;;;;;4991886;28;20050;-74
2022/02/17 03:32:37;;;;;;;5.13;0.75;;;6.50;69.20;;;;;;4991398;28;20055;-74
2022/02/17 03:35:07;;;;;;;10.00;1.35;;;6.50;69.40;;;;;;4991714;28;20061;-73
2022/02/17 03:37:36;;;;;;;6.50;1.00;;;6.50;69.60;;;;;;4991702;28;20065;-74
2022/02/17 03:40:04;;;;;;;7.90;0.80;;;6.50;69.60;;;;;;4992362;28;20064;-74
2022/02/17 03:42:49;;;;;;;16.48;1.88;;;6.50;69.40;;;;;;4991247;28;20061;-74
2022/02/17 03:45:36;;;;;;;9.23;1.30;;;6.60;69.70;;;;;;4995472;28;20057;-74
2022/02/17 03:48:26;;;;;;;7.68;1.23;;;6.60;69.30;;;;;;4994691;28;20054;-73
2022/02/17 03:50:59;;;;;;;8.65;1.10;;;6.70;68.90;;;;;;4989936;28;20054;-74
2022/02/17 03:53:27;;;;;;;6.70;0.73;;;6.60;68.70;;;;;;4975172;28;20038;-73
2022/02/17 03:55:55;;;;;;;6.22;1.23;;;6.60;68.70;;;;;;4991201;28;20042;-74
2022/02/17 03:59:04;;;;;;;5.22;1.00;;;6.60;69.00;;;;;;4990916;28;20046;-74
2022/02/17 04:01:26;;;;;;;8.57;1.50;;;6.60;68.70;;;;;;5009950;28;20118;-73
2022/02/17 04:03:57;;;;;;;7.95;1.00;;;6.60;68.70;;;;;;5002685;28;20518;-73
2022/02/17 04:06:25;;;;;;;7.95;1.27;;;6.60;68.60;;;;;;4989162;28;20480;-74
2022/02/17 04:08:53;;;;;;;6.95;1.00;;;6.60;68.70;;;;;;4989604;28;20492;-73
2022/02/17 04:11:24;;;;;;;6.70;1.05;;;6.50;68.70;;;;;;4989176;28;20035;-73
2022/02/17 04:13:53;;;;;;;5.28;0.60;;;6.50;67.80;;;;;;4986757;28;20050;-73
2022/02/17 04:16:31;;;;;;;5.55;0.77;;;6.60;67.80;;;;;;4975095;28;20514;-73
2022/02/17 04:19:14;;;;;;;8.38;1.52;;;6.60;67.80;;;;;;4977239;28;20042;-73
2022/02/17 04:21:57;;;;;;;3.88;0.93;;;6.60;68.00;;;;;;4990930;28;20049;-72
2022/02/17 04:24:55;;;;;;;5.10;1.00;;;6.40;68.30;;;;;;5008674;28;20050;-73
2022/02/17 04:27:44;;;;;;;11.98;1.35;;;6.30;68.60;;;;;;4993530;28;20042;-73
2022/02/17 04:30:31;;;;;;;7.55;1.08;;;6.30;68.90;;;;;;4991121;28;20685;-73
2022/02/17 04:33:17;;;;;;;5.07;0.63;;;6.20;69.30;;;;;;4995132;28;20050;-74
2022/02/17 04:35:54;;;;;;;7.28;1.15;;;6.10;69.60;;;;;;4989539;28;20407;-74
2022/02/17 04:38:22;;;;;;;11.45;1.23;;;6.10;69.60;;;;;;4990820;28;20493;-73
2022/02/17 04:43:41;;;;;;;9.73;1.23;;;6.00;69.90;;;;;;4990096;28;20536;-73
2022/02/17 04:46:12;;;;;;;7.60;1.15;;;6.00;70.00;;;;;;4972890;28;20052;-74
2022/02/17 04:48:40;;;;;;;11.73;1.27;;;6.00;70.10;;;;;;4991466;28;20054;-74
2022/02/17 04:51:12;;;;;;;13.85;1.20;;;6.00;70.20;;;;;;4989250;28;20047;-74
2022/02/17 04:53:40;;;;;;;9.15;1.20;;;5.90;70.30;;;;;;4989816;28;20046;-74
2022/02/17 04:56:08;;;;;;;6.93;0.73;;;5.90;70.50;;;;;;4991278;28;20046;-75
2022/02/17 04:58:39;;;;;;;11.30;1.27;;;5.80;70.70;;;;;;4989639;28;20039;-74
2022/02/17 05:01:08;;;;;;;10.82;1.25;;;5.90;70.40;;;;;;4990658;28;20484;-74
2022/02/17 05:03:44;;;;;;;6.30;0.98;;;5.90;70.60;;;;;;4989687;28;20046;-74
2022/02/17 05:06:18;;;;;;;6.93;1.00;;;5.90;70.70;;;;;;4989997;28;20100;-74
2022/02/17 05:08:53;;;;;;;4.22;0.70;;;5.90;70.60;;;;;;4990766;28;20053;-74
2022/02/17 05:11:20;;;;;;;10.73;1.20;;;5.90;70.70;;;;;;4990166;28;20046;-74
2022/02/17 05:13:50;;;;;;;8.68;1.40;;;5.90;70.60;;;;;;4988967;28;20050;-74
2022/02/17 05:16:19;;;;;;;4.70;0.70;;;6.00;70.80;;;;;;4989257;28;20488;-75
2022/02/17 05:19:06;;;;;;;5.07;0.95;;;6.00;70.90;;;;;;4994845;28;20385;-73
2022/02/17 05:22:00;;;;;;;;;;;6.00;71.00;;;;;;4989945;28;20050;-73
2022/02/17 05:24:45;;;;;;;5.30;1.02;;;5.90;71.10;;;;;;5005766;28;19929;-73
2022/02/17 05:27:37;;;;;;;23.25;1.70;;;5.90;70.90;;;;;;4990915;28;20065;-73
2022/02/17 05:30:15;;;;;;;7.78;1.25;;;5.90;71.00;;;;;;4990072;28;20054;-73
2022/02/17 05:33:06;;;;;;;12.43;1.17;;;6.00;71.00;;;;;;4988831;28;20042;-73
2022/02/17 05:36:04;;;;;;;7.47;0.60;;;5.90;71.20;;;;;;4989544;28;20054;-73
2022/02/17 05:38:50;;;;;;;7.82;0.98;;;5.80;71.00;;;;;;4990927;28;20053;-73
2022/02/17 05:41:35;;;;;;;12.20;1.95;;;5.80;71.00;;;;;;4989686;28;20042;-73
2022/02/17 05:44:04;;;;;;;8.55;0.98;;;5.80;70.80;;;;;;4991052;28;20046;-74
2022/02/17 05:46:32;;;;;;;6.28;1.20;;;5.80;70.70;;;;;;4991031;28;20041;-73
2022/02/17 05:49:00;;;;;;;5.63;0.85;;;5.90;70.50;;;;;;4989376;28;20070;-73
2022/02/17 05:51:28;;;;;;;9.18;0.98;;;5.90;70.30;;;;;;4987133;28;20049;-74
2022/02/17 05:54:15;;;;;;;7.68;1.00;;;5.90;70.00;;;;;;4990736;28;20050;-73
2022/02/17 05:56:42;;;;;;;9.93;1.42;;;5.90;69.70;;;;;;4991291;28;20048;-73
2022/02/17 05:59:10;;;;;;;7.97;1.02;;;5.90;69.80;;;;;;4989225;28;20045;-74
2022/02/17 06:01:37;;;;;;;6.07;1.05;;;5.90;69.40;;;;;;4988647;28;20054;-73
2022/02/17 06:04:06;;;;;;;9.75;1.33;;;5.90;69.20;;;;;;4989639;28;20449;-73
2022/02/17 06:06:36;;;;;;;11.07;1.45;;;6.00;69.30;;;;;;4991459;28;20504;-73
2022/02/17 06:09:06;;;;;;;10.50;1.10;;;6.00;69.10;;;;;;4992690;28;20041;-74
2022/02/17 06:11:33;;;;;;;6.97;1.00;;;6.00;69.00;;;;;;4993343;28;20038;-73
2022/02/17 06:14:08;;;;;;;7.55;1.27;;;6.00;68.90;;;;;;4990570;28;20054;-74
2022/02/17 06:16:36;;;;;;;8.07;1.25;;;6.00;69.30;;;;;;4992262;28;20518;-73
2022/02/17 06:19:03;;;;;;;8.30;1.38;;;5.90;69.70;;;;;;4992549;28;20050;-73
2022/02/17 06:21:31;;;;;;;7.47;1.08;;;5.80;70.30;;;;;;4976756;28;20488;-74
2022/02/17 06:23:59;;;;;;;8.68;0.93;;;5.70;70.80;;;;;;4993328;28;20053;-73
2022/02/17 06:26:26;;;;;;;6.88;1.25;;;5.50;71.40;;;;;;4994101;28;20042;-73
2022/02/17 06:28:54;;;;;;;7.80;1.20;;;5.40;72.10;;;;;;4993928;28;20050;-73
2022/02/17 06:31:21;;;;;;;13.57;1.63;;;5.30;72.70;;;;;;4993336;28;20518;-73
2022/02/17 06:34:08;;;;;;;7.28;0.80;;;5.20;73.40;;;;;;4997019;28;20354;-73
2022/02/17 06:36:38;;;;;;;10.82;1.73;;;5.10;74.10;;;;;;4991605;28;20055;-73
2022/02/17 06:39:24;;;;;;;13.98;1.38;;;5.10;74.40;;;;;;4994153;28;20058;-73
2022/02/17 06:41:52;;;;;;;7.03;1.10;;;5.20;74.60;;;;;;4992477;28;20046;-73
2022/02/17 06:44:38;;;;;;;10.43;0.90;;;5.10;74.90;;;;;;4993729;28;20042;-74
2022/02/17 06:47:06;;;;;;;7.43;1.10;;;5.10;75.20;;;;;;4993327;28;20046;-74
2022/02/17 06:49:34;;;;;;;10.63;1.60;;;5.10;75.30;;;;;;4993214;28;20050;-74
2022/02/17 06:52:04;;;;;;;6.75;1.10;;;5.10;75.40;;;;;;4993768;28;20046;-72
2022/02/17 06:54:32;;;;;;;12.02;1.45;;;5.10;75.60;;;;;;4992951;28;20038;-73
2022/02/17 06:57:00;;;;;;;22.17;2.40;;;5.20;75.60;;;;;;4991489;28;20050;-72
2022/02/17 06:59:27;;;;;;;8.75;1.52;;;5.30;75.60;;;;;;4993053;28;20050;-72
2022/02/17 07:01:55;;;;;;;12.52;1.85;;;5.30;75.60;;;;;;4992786;28;20045;-72
2022/02/17 07:04:23;;;;;;;7.03;1.10;;;5.30;75.50;;;;;;4994030;28;20049;-72
2022/02/17 07:06:51;;;;;;;5.75;1.15;;;5.30;75.90;;;;;;4994187;28;20062;-72
2022/02/17 07:09:19;;;;;;;9.73;1.15;;;5.30;76.40;;;;;;4992202;28;20038;-72
2022/02/17 07:11:47;;;;;;;3.70;0.75;;;5.40;76.70;;;;;;4993744;28;20395;-72
2022/02/17 07:14:14;;;;;;;3.75;0.73;;;5.40;77.40;;;;;;4993364;28;20043;-72
2022/02/17 07:16:42;;;;;;;6.70;0.80;;;5.50;77.50;;;;;;4991225;28;20046;-72
2022/02/17 07:19:10;;;;;;;5.97;0.80;;;5.50;77.60;;;;;;4991210;28;20057;-72
2022/02/17 07:21:37;;;;;;;7.30;1.00;;;5.50;77.50;;;;;;4990845;28;20504;-72
2022/02/17 07:24:24;;;;;;;3.28;0.57;;;5.60;77.60;;;;;;4995912;28;20046;-72
2022/02/17 07:26:51;;;;;;;4.15;0.60;;;5.50;77.60;;;;;;4992733;28;20062;-71
2022/02/17 07:29:20;;;;;;;2.17;0.30;;;5.40;78.10;;;;;;4992940;28;20377;-72
2022/02/17 07:31:52;;;;;;;4.30;0.40;;;5.30;78.90;;;;;;4991250;28;20050;-72
2022/02/17 07:34:20;;;;;;;4.75;0.47;;;5.30;79.10;;;;;;4976345;28;20039;-72
2022/02/17 07:36:47;;;;;;;3.85;0.57;;;5.30;79.60;;;;;;4996082;28;20762;-72
2022/02/17 07:39:15;;;;;;;5.85;0.60;;;5.30;79.80;;;;;;4997504;28;20047;-72
2022/02/17 07:41:43;;;;;;;3.95;0.77;;;5.20;79.70;;;;;;4993632;28;20045;-71
2022/02/17 07:44:13;;;;;;;4.65;0.55;;;5.20;79.80;;;;;;4993052;28;20054;-72
2022/02/17 07:46:41;;;;;;;4.85;1.13;;;5.10;79.60;;;;;;4993699;28;20054;-71
2022/02/17 07:49:09;;;;;;;9.45;0.95;;;5.10;79.00;;;;;;4993372;28;20038;-72
2022/02/17 07:51:39;;;;;;;5.53;0.90;;;5.10;78.70;;;;;;4992636;28;20042;-73
2022/02/17 07:54:07;;;;;;;4.07;1.13;;;5.10;78.10;;;;;;4992648;28;20047;-72
2022/02/17 07:56:35;;;;;;;3.47;0.70;;;5.20;77.80;;;;;;4991859;28;20042;-72
2022/02/17 07:59:02;;;;;;;5.82;0.77;;;5.20;77.40;;;;;;4989916;28;20050;-73
2022/02/17 08:01:30;;;;;;;6.15;0.65;;;5.30;77.10;;;;;;4990268;28;20053;-72
2022/02/17 08:03:57;;;;;;;10.05;1.40;;;5.30;77.10;;;;;;4989938;28;20046;-72
2022/02/17 08:06:43;;;;;;;8.70;0.95;;;5.30;76.60;;;;;;4990905;28;20707;-74
2022/02/17 08:09:11;;;;;;;5.32;1.00;;;5.30;76.70;;;;;;4991585;28;20050;-72
2022/02/17 08:11:39;;;;;;;5.07;0.80;;;5.50;76.70;;;;;;4994467;28;20561;-72
2022/02/17 08:14:07;;;;;;;5.45;0.82;;;5.60;76.20;;;;;;4995278;28;20046;-70
2022/02/17 08:16:35;;;;;;;2.85;0.68;;;5.70;75.40;;;;;;4990224;28;20051;-72
2022/02/17 08:19:04;;;;;;;6.93;1.08;;;5.70;75.00;;;;;;4996607;28;20476;-71
2022/02/17 08:21:47;;;;;;;7.20;1.10;;;5.80;74.30;;;;;;4991632;28;20038;-73
2022/02/17 08:24:16;;;;;;;6.53;1.17;;;5.70;73.90;;;;;;4990829;28;20058;-72
2022/02/17 08:26:44;;;;;;;3.60;0.60;;;5.70;74.10;;;;;;4990929;28;20057;-73
2022/02/17 08:29:11;;;;;;;6.32;1.25;;;5.60;74.50;;;;;;4993445;28;20420;-73
2022/02/17 08:31:39;;;;;;;7.72;1.15;;;5.60;74.00;;;;;;4992946;28;20057;-73
2022/02/17 08:34:08;;;;;;;5.30;1.20;;;5.50;74.20;;;;;;4992739;28;20061;-72
2022/02/17 08:36:36;;;;;;;10.57;0.93;;;5.50;73.90;;;;;;4991522;28;20055;-72
2022/02/17 08:39:06;;;;;;;6.00;1.10;;;5.50;74.20;;;;;;4975238;28;20053;-72
2022/02/17 08:41:37;;;;;;;11.73;1.45;;;5.50;74.50;;;;;;4991576;28;20050;-72
2022/02/17 08:44:05;;;;;;;11.10;1.10;;;5.40;74.70;;;;;;4991641;28;20050;-73
2022/02/17 08:46:33;;;;;;;6.82;0.95;;;5.50;73.90;;;;;;4991122;28;20058;-72
2022/02/17 08:49:06;;;;;;;5.45;0.82;;;5.50;72.50;;;;;;4991897;28;20054;-72
2022/02/17 08:51:35;;;;;;;9.43;1.17;;;5.60;71.80;;;;;;4992649;28;20128;-71
2022/02/17 08:54:04;;;;;;;5.32;1.05;;;5.70;71.00;;;;;;4991690;28;20057;-72
2022/02/17 08:56:32;;;;;;;6.35;0.77;;;5.70;70.80;;;;;;4992218;28;20058;-72
2022/02/17 08:59:00;;;;;;;7.28;1.23;;;5.70;69.90;;;;;;4992892;28;20042;-71
2022/02/17 09:01:29;;;;;;;9.90;1.30;;;5.80;69.90;;;;;;4994846;28;20046;-71
2022/02/17 09:03:57;;;;;;;8.68;1.00;;;5.80;68.90;;;;;;4997494;28;20046;-71
2022/02/17 09:06:24;;;;;;;13.30;1.35;;;5.90;69.40;;;;;;4992319;28;20046;-71
2022/02/17 09:08:52;;;;;;;10.50;1.10;;;6.00;69.00;;;;;;4992429;28;20050;-72
2022/02/17 09:11:19;;;;;;;4.45;0.93;;;6.10;69.00;;;;;;4990322;28;20047;-71
2022/02/17 09:13:47;;;;;;;7.55;1.30;;;6.20;68.10;;;;;;4993040;28;20057;-71
2022/02/17 09:16:15;;;;;;;6.13;1.02;;;6.20;68.20;;;;;;4991235;28;20050;-70
2022/02/17 09:18:42;;;;;;;9.50;1.10;;;6.30;68.40;;;;;;4991375;28;20519;-71
2022/02/17 09:21:16;;;;;;;13.25;1.75;;;6.30;67.30;;;;;;4991055;28;20380;-71
2022/02/17 09:23:44;;;;;;;7.07;1.13;;;6.30;66.50;;;;;;4991511;28;20476;-71
2022/02/17 09:26:12;;;;;;;9.80;1.23;;;6.40;66.00;;;;;;4991089;28;20046;-71
2022/02/17 09:28:41;;;;;;;4.90;1.00;;;6.40;66.00;;;;;;4992575;28;20401;-71
2022/02/17 09:31:28;;;;;;;8.52;1.73;;;6.50;66.00;;;;;;4991966;28;20054;-72
2022/02/17 09:33:56;;;;;;;7.03;1.45;;;6.50;65.30;;;;;;4992131;28;20054;-73
2022/02/17 09:36:27;;;;;;;7.50;1.50;;;6.70;65.40;;;;;;4992699;28;20054;-73
2022/02/17 09:38:56;;;;;;;7.50;0.80;;;6.70;65.50;;;;;;4992125;28;20484;-73
2022/02/17 09:41:24;;;;;;;11.88;1.73;;;6.70;64.70;;;;;;4993326;28;20061;-72
2022/02/17 09:43:53;;;;;;;4.63;1.23;;;6.80;64.40;;;;;;4994692;28;20057;-72
2022/02/17 09:46:21;;;;;;;9.90;1.52;;;6.90;64.70;;;;;;4993416;28;20042;-73
2022/02/17 09:48:55;;;;;;;11.30;1.70;;;7.00;63.60;;;;;;4994440;28;20042;-72
2022/02/17 09:51:24;;;;;;;10.63;1.65;;;7.00;63.90;;;;;;4994593;28;20504;-73
2022/02/17 09:53:52;;;;;;;8.20;1.40;;;7.10;63.40;;;;;;4994455;28;20050;-73
2022/02/17 09:56:24;;;;;;;10.73;1.63;;;7.10;63.50;;;;;;4996360;28;20038;-71
2022/02/17 09:58:53;;;;;;;10.30;1.48;;;7.10;63.80;;;;;;4996157;28;20051;-71
2022/02/17 10:01:26;;;;;;;13.82;1.60;;;7.20;63.50;;;;;;4996244;28;20049;-71
2022/02/17 10:04:12;;;;;;;13.65;1.33;;;7.30;63.10;;;;;;4995876;28;20046;-71
2022/02/17 10:06:45;;;;;;;9.20;1.58;;;7.30;62.80;;;;;;4995814;28;20038;-72
2022/02/17 10:09:13;;;;;;;17.90;1.52;;;7.30;62.60;;;;;;4995865;28;20058;-72
2022/02/17 10:11:45;;;;;;;6.60;1.38;;;7.30;61.60;;;;;;4995885;28;20042;-72
2022/02/17 10:14:16;;;;;;;14.07;1.58;;;7.30;61.60;;;;;;5007732;28;20517;-72
2022/02/17 10:16:54;;;;;;;10.23;1.30;;;7.40;61.70;;;;;;5015464;28;20045;-72
2022/02/17 10:19:25;;;;;;;14.00;1.70;;;7.30;61.90;;;;;;4997029;28;20115;-72
2022/02/17 10:22:07;;;;;;;12.40;2.00;;;7.40;61.90;;;;;;4995804;28;20131;-72
2022/02/17 10:24:48;;;;;;;11.35;2.00;;;7.40;62.60;;;;;;4995673;28;20046;-72
2022/02/17 10:27:22;;;;;;;6.00;1.15;;;7.50;62.60;;;;;;4995007;28;20057;-72
2022/02/17 10:30:06;;;;;;;10.65;1.63;;;7.60;62.60;;;;;;5006570;28;20058;-72
2022/02/17 10:32:34;;;;;;;9.43;0.93;;;7.70;62.60;;;;;;4994664;28;20057;-71
2022/02/17 10:35:13;;;;;;;5.32;1.15;;;7.70;62.70;;;;;;4993063;28;20058;-71
2022/02/17 10:37:56;;;;;;;7.38;1.35;;;7.80;62.10;;;;;;5000474;28;20062;-71
2022/02/17 10:40:25;;;;;;;6.35;0.80;;;7.80;62.10;;;;;;4994766;28;20046;-72
2022/02/17 10:43:04;;;;;;;6.80;1.23;;;7.90;62.50;;;;;;5000832;28;20050;-71
2022/02/17 10:45:42;;;;;;;8.45;1.17;;;7.90;62.30;;;;;;5011154;28;20046;-71
2022/02/17 10:48:17;;;;;;;11.60;1.60;;;7.90;62.10;;;;;;4995270;28;20069;-71
2022/02/17 10:51:06;;;;;;;16.63;2.10;;;8.00;63.00;;;;;;4977560;28;20500;-71
2022/02/17 10:53:45;;;;;;;14.30;2.15;;;8.10;63.20;;;;;;4994922;28;20046;-71
2022/02/17 10:56:16;;;;;;;12.90;1.95;;;8.10;63.50;;;;;;4995058;28;20054;-72
2022/02/17 10:58:47;;;;;;;12.87;1.50;;;8.30;64.30;;;;;;4993836;28;20488;-71
2022/02/17 11:01:16;;;;;;;6.97;1.55;;;8.50;63.80;;;;;;4995313;28;20065;-72
2022/02/17 11:03:44;;;;;;;7.13;1.27;;;8.50;63.10;;;;;;4995551;28;20082;-72
2022/02/17 11:06:16;;;;;;;14.15;1.60;;;8.50;63.30;;;;;;4994125;28;20484;-72
2022/02/17 11:08:47;;;;;;;14.30;1.80;;;8.50;63.50;;;;;;4994944;28;20044;-71
2022/02/17 11:11:18;;;;;;;6.78;1.45;;;8.40;62.90;;;;;;5000240;28;20046;-71
2022/02/17 11:13:50;;;;;;;2.78;0.85;;;8.40;63.90;;;;;;4993143;28;20434;-72
2022/02/17 11:16:24;;;;;;;10.43;1.58;;;8.40;63.30;;;;;;4991628;28;20042;-72
2022/02/17 11:18:55;;;;;;;12.13;2.45;;;8.40;63.80;;;;;;4994084;28;20046;-72
2022/02/17 11:21:23;;;;;;;9.90;1.42;;;8.40;64.00;;;;;;4993428;28;20050;-72
2022/02/17 11:23:58;;;;;;;9.13;1.50;;;8.50;64.30;;;;;;4994912;28;20514;-73
2022/02/17 11:26:30;;;;;;;8.45;1.85;;;8.50;64.00;;;;;;4994543;28;20055;-72
2022/02/17 11:29:22;;;;;;;10.55;1.85;;;8.60;64.30;;;;;;4993839;28;20038;-73
2022/02/17 11:31:55;;;;;;;12.93;2.10;;;8.60;64.20;;;;;;4992473;28;20095;-72
2022/02/17 11:34:38;;;;;;;13.80;2.63;;;8.70;64.60;;;;;;4992513;28;20046;-71
2022/02/17 11:37:30;;;;;;;12.83;1.90;;;8.80;64.50;;;;;;4992381;28;20057;-72
2022/02/17 11:40:09;;;;;;;11.48;2.00;;;9.00;64.20;;;;;;4992526;28;20791;-72
2022/02/17 11:42:44;;;;;;;13.52;2.13;;;9.10;63.40;;;;;;4992574;28;20064;-72
2022/02/17 11:45:22;;;;;;;14.82;1.63;;;9.30;62.80;;;;;;4992491;28;20543;-72
2022/02/17 11:48:00;;;;;;;8.45;1.30;;;9.30;62.60;;;;;;5006965;28;20041;-72
2022/02/17 11:50:38;;;;;;;11.07;1.65;;;9.40;62.70;;;;;;4973756;28;20047;-72
2022/02/17 11:53:36;;;;;;;10.32;1.67;;;9.50;61.30;;;;;;4976599;28;20062;-73
2022/02/17 11:56:06;;;;;;;8.25;1.20;;;9.70;61.30;;;;;;4985941;28;20522;-72
2022/02/17 11:58:40;;;;;;;13.43;1.60;;;9.80;60.80;;;;;;4993791;28;20047;-72
2022/02/17 12:01:25;;;;;;;15.00;2.20;;;9.80;60.90;;;;;;4993361;28;20054;-71
2022/02/17 12:04:01;;;;;;;7.93;0.80;;;10.00;60.40;;;;;;4993857;28;20051;-73
2022/02/17 12:06:50;;;;;;;10.20;1.52;;;10.10;59.80;;;;;;4992614;28;20058;-73
2022/02/17 12:09:43;;;;;;;12.57;1.42;;;10.00;58.60;;;;;;4993985;28;20042;-72
2022/02/17 12:12:31;;;;;;;12.32;1.42;;;9.90;59.60;;;;;;4991416;28;20496;-70
2022/02/17 12:15:00;;;;;;;11.25;1.73;;;9.60;60.60;;;;;;4992722;28;20039;-72
2022/02/17 12:17:35;;;;;;;4.60;1.27;;;9.60;61.20;;;;;;4993621;28;20062;-72
2022/02/17 12:20:18;;;;;;;11.30;1.40;;;9.80;60.20;;;;;;4993985;28;20491;-72
2022/02/17 12:22:48;;;;;;;;;;;10.10;58.20;;;;;;4994160;28;20046;-73
2022/02/17 12:25:21;;;;;;;5.63;1.02;;;10.40;57.40;;;;;;4993763;28;19922;-73
2022/02/17 12:28:01;;;;;;;4.65;1.05;;;10.70;57.10;;;;;;4993757;28;20065;-73
2022/02/17 12:30:42;;;;;;;6.43;1.67;;;10.90;55.30;;;;;;4991832;28;20046;-73
2022/02/17 12:33:31;;;;;;;2.38;0.85;;;11.10;54.40;;;;;;4994102;28;20496;-73
2022/02/17 12:36:09;;;;;;;9.35;1.48;;;11.10;54.10;;;;;;4993256;28;20038;-73
2022/02/17 12:38:37;;;;;;;7.97;1.27;;;11.10;54.10;;;;;;4992302;28;20057;-74
2022/02/17 12:41:10;;;;;;;12.38;1.60;;;11.30;51.80;;;;;;4993302;28;20052;-73
2022/02/17 12:43:42;;;;;;;8.35;1.50;;;11.50;52.50;;;;;;4992905;28;20057;-73
2022/02/17 12:46:12;;;;;;;5.90;1.05;;;11.80;52.50;;;;;;4975865;28;20051;-73
2022/02/17 12:48:40;;;;;;;3.92;0.82;;;12.30;49.70;;;;;;4993079;28;20046;-73
2022/02/17 12:51:31;;;;;;;7.82;1.23;;;12.50;45.10;;;;;;4993228;28;20046;-74
2022/02/17 12:54:06;;;;;;;3.60;0.73;;;12.40;44.50;;;;;;4993015;28;20057;-74
2022/02/17 12:56:35;;;;;;;6.22;0.98;;;12.50;43.90;;;;;;4993024;28;20054;-73
2022/02/17 12:59:15;;;;;;;6.43;1.02;;;12.60;43.90;;;;;;4993198;28;20401;-74
2022/02/17 13:01:44;;;;;;;7.40;0.98;;;12.60;45.50;;;;;;4991879;28;20046;-72
2022/02/17 13:04:14;;;;;;;9.90;1.75;;;12.80;44.50;;;;;;4993164;28;20065;-74
2022/02/17 13:06:42;;;;;;;10.40;1.60;;;12.80;45.10;;;;;;4991851;28;20071;-73
2022/02/17 13:09:13;;;;;;;4.05;0.90;;;12.80;46.00;;;;;;4992872;28;20415;-73
2022/02/17 13:11:51;;;;;;;8.68;1.73;;;12.70;46.00;;;;;;4989430;28;20049;-74
2022/02/17 13:14:22;;;;;;;10.77;1.80;;;12.20;47.00;;;;;;4990036;28;20047;-73
2022/02/17 13:17:01;;;;;;;8.25;1.70;;;11.60;48.80;;;;;;4981937;28;20062;-73
2022/02/17 13:19:42;;;;;;;10.57;1.55;;;11.00;50.40;;;;;;4991193;28;20051;-73
2022/02/17 13:22:18;;;;;;;9.77;1.58;;;10.40;52.10;;;;;;4973579;28;20049;-72
2022/02/17 13:25:03;;;;;;;9.60;1.67;;;10.00;54.30;;;;;;4973541;28;20396;-72
2022/02/17 13:27:41;;;;;;;12.88;1.50;;;9.70;56.20;;;;;;4971526;28;20054;-72